Time;durP1;ratioP1;P1;durP2;ratioP2;P2;SDS_P1;SDS_P2;PMS_P1;PMS_P2;Temp;Humidity;BMP_temperature;BMP_pressure;BME280_temperature;BME280_humidity;BME280_pressure;Samples;Min_cycle;Max_cycle;Signal;HPM_P1;HPM_P2
2022/05/06 00:00:53;;;;;;;25.75;5.15;;;;;;;7.46;81.77;100911.97;5083789;28;20042;-69
2022/05/06 00:03:18;;;;;;;22.23;5.35;;;;;;;7.46;81.78;100903.38;5083845;28;20076;-70
2022/05/06 00:05:44;;;;;;;26.52;5.35;;;;;;;7.48;81.58;100906.81;5083635;28;20448;-69
2022/05/06 00:08:11;;;;;;;26.17;5.65;;;;;;;7.46;81.76;100903.38;5083847;28;20025;-69
2022/05/06 00:10:36;;;;;;;21.05;5.75;;;;;;;7.49;81.61;100908.59;5083654;28;20423;-69
2022/05/06 00:13:02;;;;;;;28.52;6.07;;;;;;;7.46;81.51;100905.97;5083242;28;20024;-70
2022/05/06 00:15:27;;;;;;;23.50;5.47;;;;;;;7.49;81.45;100909.44;5083608;28;20031;-70
2022/05/06 00:17:52;;;;;;;18.60;6.03;;;;;;;7.48;81.47;100905.13;5083562;28;20111;-70
2022/05/06 00:20:18;;;;;;;25.88;6.45;;;;;;;7.46;81.48;100908.53;5083742;28;20538;-70
2022/05/06 00:22:44;;;;;;;36.97;7.10;;;;;;;7.47;81.51;100910.28;5083660;28;20029;-70
2022/05/06 00:25:09;;;;;;;25.58;5.82;;;;;;;7.44;81.44;100906.78;5083666;28;20020;-70
2022/05/06 00:27:38;;;;;;;20.35;6.30;;;;;;;7.44;81.82;100906.78;5083311;28;20025;-69
2022/05/06 00:30:04;;;;;;;22.65;5.15;;;;;;;7.46;81.96;100905.97;5083926;28;20028;-70
2022/05/06 00:32:29;;;;;;;16.45;5.43;;;;;;;7.48;82.02;100910.28;5083453;28;20017;-69
2022/05/06 00:34:55;;;;;;;22.25;5.30;;;;;;;7.48;82.36;100910.28;5065241;28;20079;-69
2022/05/06 00:37:20;;;;;;;13.10;5.60;;;;;;;7.45;82.58;100907.66;5082960;28;20094;-69
2022/05/06 00:39:46;;;;;;;24.58;5.68;;;;;;;7.48;82.57;100912.00;5083202;28;20112;-70
2022/05/06 00:42:11;;;;;;;27.13;5.55;;;;;;;7.48;82.91;100912.88;5083151;28;20028;-70
2022/05/06 00:44:36;;;;;;;26.88;5.82;;;;;;;7.50;82.91;100912.88;5082964;28;20013;-70
2022/05/06 00:47:04;;;;;;;27.00;5.13;;;;;;;7.50;83.17;100913.78;5082643;28;20526;-71
2022/05/06 00:49:30;;;;;;;34.47;5.95;;;;;;;7.52;83.33;100906.03;5082926;28;20031;-70
2022/05/06 00:51:56;;;;;;;28.30;7.40;;;;;;;7.52;83.43;100908.63;5083197;28;20024;-70
2022/05/06 00:54:23;;;;;;;33.60;6.05;;;;;;;7.55;83.33;100906.06;5082934;28;20131;-70
2022/05/06 00:56:50;;;;;;;35.60;6.28;;;;;;;7.53;83.68;100905.19;5082858;28;20563;-70
2022/05/06 00:59:16;;;;;;;25.13;7.85;;;;;;;7.51;83.97;100902.56;5082909;28;20352;-70
2022/05/06 01:01:41;;;;;;;24.75;6.22;;;;;;;7.51;83.96;100906.88;5083052;28;20452;-70
2022/05/06 01:04:07;;;;;;;30.55;5.43;;;;;;;7.48;84.09;100906.81;5082776;28;20042;-70
2022/05/06 01:06:35;;;;;;;26.83;5.53;;;;;;;7.44;84.29;100898.19;5082862;28;20031;-69
2022/05/06 01:09:00;;;;;;;32.03;7.55;;;;;;;7.50;84.50;100894.81;5082697;28;20024;-70
2022/05/06 01:11:26;;;;;;;22.48;5.93;;;;;;;7.53;84.56;100902.59;5082828;28;20016;-70
2022/05/06 01:13:55;;;;;;;20.67;5.60;;;;;;;7.54;84.68;100901.75;5082468;28;20032;-69
2022/05/06 01:16:20;;;;;;;28.17;6.22;;;;;;;7.53;84.87;100897.44;5082828;28;20028;-68
2022/05/06 01:18:47;;;;;;;19.30;4.38;;;;;;;7.60;84.72;100900.97;5082814;28;20031;-69
2022/05/06 01:21:22;;;;;;;22.45;5.63;;;;;;;7.65;84.65;100896.72;5082915;28;20025;-68
2022/05/06 01:23:47;;;;;;;36.10;6.32;;;;;;;7.67;84.34;100901.03;5082593;28;20024;-70
2022/05/06 01:26:12;;;;;;;22.45;5.45;;;;;;;7.67;84.36;100900.16;5082755;28;20082;-69
2022/05/06 01:28:39;;;;;;;34.53;5.72;;;;;;;7.66;84.28;100906.19;5082446;28;20031;-69
2022/05/06 01:31:07;;;;;;;33.42;6.53;;;;;;;7.63;84.09;100899.28;5082814;28;20017;-70
2022/05/06 01:33:35;;;;;;;31.52;7.15;;;;;;;7.66;83.89;100901.91;5082759;28;20086;-70
2022/05/06 01:36:03;;;;;;;18.88;6.32;;;;;;;7.57;83.89;100897.47;5082228;28;20074;-69
2022/05/06 01:38:42;;;;;;;26.90;6.10;;;;;;;7.60;83.68;100912.16;5082648;28;20302;-69
2022/05/06 01:41:13;;;;;;;24.58;5.78;;;;;;;7.56;83.67;100902.63;5082661;28;20024;-69
2022/05/06 01:43:46;;;;;;;18.85;5.53;;;;;;;7.58;83.47;100900.94;5082359;28;20021;-69
2022/05/06 01:46:14;;;;;;;22.15;5.85;;;;;;;7.57;83.45;100906.97;5082548;28;20230;-69
2022/05/06 01:48:42;;;;;;;34.78;6.88;;;;;;;7.58;83.15;100906.09;5082425;28;20017;-70
2022/05/06 01:51:10;;;;;;;21.45;5.40;;;;;;;7.55;83.20;100899.19;5082273;28;20502;-70
2022/05/06 01:53:36;;;;;;;28.13;6.15;;;;;;;7.57;83.07;100912.13;5082515;28;20472;-69
2022/05/06 01:56:02;;;;;;;23.25;5.78;;;;;;;7.55;82.98;100908.66;5082028;28;20052;-69
2022/05/06 01:58:28;;;;;;;25.20;5.70;;;;;;;7.55;82.83;100911.25;5064106;28;20017;-70
2022/05/06 02:00:53;;;;;;;29.02;5.63;;;;;;;7.55;82.66;100919.00;5085526;28;20051;-70
2022/05/06 02:06:02;;;;;;;27.95;6.55;;;;;;;7.55;82.22;100919.00;5085947;28;20036;-69
2022/05/06 02:08:28;;;;;;;24.98;5.30;;;;;;;7.50;82.21;100915.47;5085954;28;20024;-70
2022/05/06 02:10:53;;;;;;;21.70;6.15;;;;;;;7.47;81.96;100913.72;5086018;28;20028;-69
2022/05/06 02:13:19;;;;;;;26.73;7.45;;;;;;;7.51;81.60;100917.19;5085633;28;20058;-69
2022/05/06 02:15:45;;;;;;;28.13;6.35;;;;;;;7.51;81.46;100919.78;5085860;28;20051;-70
2022/05/06 02:18:11;;;;;;;21.10;6.05;;;;;;;7.49;81.50;100924.09;5085815;28;20040;-72
2022/05/06 02:20:37;;;;;;;24.77;5.63;;;;;;;7.47;81.57;100925.78;5086196;28;20028;-70
2022/05/06 02:23:02;;;;;;;26.27;6.75;;;;;;;7.44;81.79;100919.72;5085715;28;20024;-69
2022/05/06 02:25:28;;;;;;;23.52;6.25;;;;;;;7.41;81.71;100929.16;5067680;28;20027;-70
2022/05/06 02:27:53;;;;;;;19.65;6.50;;;;;;;7.41;81.81;100929.16;5085576;28;20025;-69
2022/05/06 02:33:15;;;;;;;24.67;5.53;;;;;;;7.39;81.84;100917.94;5085505;28;20047;-69
2022/05/06 02:35:44;;;;;;;29.90;5.88;;;;;;;7.36;81.96;100920.47;5085519;28;20020;-69
2022/05/06 02:38:11;;;;;;;20.60;5.10;;;;;;;7.37;81.97;100917.03;5085398;28;20032;-70
2022/05/06 02:40:37;;;;;;;20.00;6.28;;;;;;;7.36;82.05;100913.59;5085582;28;20066;-70
2022/05/06 02:43:04;;;;;;;15.98;5.38;;;;;;;7.37;82.05;100919.59;5067016;28;20119;-69
2022/05/06 02:45:30;;;;;;;25.52;5.68;;;;;;;7.38;81.94;100922.22;5085370;28;20017;-69
2022/05/06 02:47:57;;;;;;;20.75;6.00;;;;;;;7.36;81.82;100921.34;5085265;28;20020;-69
2022/05/06 02:50:22;;;;;;;35.17;6.15;;;;;;;7.35;81.76;100921.31;5085290;28;20093;-69
2022/05/06 02:52:48;;;;;;;23.98;5.20;;;;;;;7.31;81.89;100918.72;5085155;28;20380;-69
2022/05/06 02:55:13;;;;;;;20.45;5.50;;;;;;;7.32;81.93;100922.13;5085046;28;20013;-68
2022/05/06 02:57:38;;;;;;;22.60;5.90;;;;;;;7.30;82.09;100921.25;5084957;28;20417;-68
2022/05/06 03:00:04;;;;;;;19.17;5.35;;;;;;;7.33;82.26;100918.72;5085222;28;20302;-69
2022/05/06 03:02:30;;;;;;;22.83;4.68;;;;;;;7.33;81.99;100916.13;5085096;28;20164;-69
2022/05/06 03:04:55;;;;;;;26.80;6.35;;;;;;;7.36;82.22;100916.19;5084956;28;20020;-69
2022/05/06 03:07:22;;;;;;;19.50;4.60;;;;;;;7.35;82.27;100922.16;5084814;28;20527;-68
2022/05/06 03:09:47;;;;;;;23.38;6.05;;;;;;;7.36;82.34;100921.34;5084734;28;20031;-69
2022/05/06 03:12:13;;;;;;;22.55;6.35;;;;;;;7.37;82.33;100917.91;5066450;28;20017;-69
2022/05/06 03:14:38;;;;;;;19.63;6.38;;;;;;;7.38;82.27;100917.03;5084656;28;20248;-69
2022/05/06 03:17:04;;;;;;;22.60;5.80;;;;;;;7.32;82.43;100904.06;5084682;28;20028;-68
2022/05/06 03:19:29;;;;;;;17.65;5.38;;;;;;;7.41;82.47;100924.84;5084558;28;20047;-68
2022/05/06 03:21:57;;;;;;;17.48;4.95;;;;;;;7.43;82.45;100919.69;5066564;28;20535;-69
2022/05/06 03:24:23;;;;;;;17.35;5.43;;;;;;;7.46;82.31;100919.72;5084544;28;20099;-68
2022/05/06 03:26:48;;;;;;;15.82;4.93;;;;;;;7.48;82.14;100920.63;5084372;28;20025;-68
2022/05/06 03:29:13;;;;;;;17.73;6.18;;;;;;;7.53;82.20;100918.09;5066412;28;20028;-69
2022/05/06 03:31:39;;;;;;;25.05;6.40;;;;;;;7.66;82.15;100932.91;5084437;28;20024;-69
2022/05/06 03:34:05;;;;;;;19.63;4.25;;;;;;;7.79;82.42;100933.06;5084311;28;20387;-69
2022/05/06 03:36:30;;;;;;;16.17;4.82;;;;;;;7.94;82.27;100929.75;5083984;28;20111;-69
2022/05/06 03:38:56;;;;;;;17.77;4.18;;;;;;;8.12;82.18;100926.50;5084356;28;20020;-70
2022/05/06 03:41:22;;;;;;;15.88;4.03;;;;;;;8.34;82.11;100924.13;5084335;28;20044;-70
2022/05/06 03:43:47;;;;;;;16.17;4.38;;;;;;;8.58;81.70;100922.63;5084101;28;20024;-70
2022/05/06 03:46:13;;;;;;;20.90;4.55;;;;;;;8.87;81.61;100924.59;5084168;28;20047;-69
2022/05/06 03:48:38;;;;;;;15.13;3.85;;;;;;;9.11;80.92;100924.72;5084177;28;20059;-70
2022/05/06 03:51:23;;;;;;;19.50;4.05;;;;;;;9.37;80.07;100926.59;5083944;28;20048;-70
2022/05/06 03:53:52;;;;;;;18.52;4.15;;;;;;;9.62;78.16;100925.00;5084154;28;20136;-70
2022/05/06 03:56:18;;;;;;;19.42;4.25;;;;;;;9.91;78.14;100923.34;5066017;28;20024;-70
2022/05/06 03:58:44;;;;;;;13.25;3.17;;;;;;;10.20;77.63;100929.47;5083780;28;20024;-70
2022/05/06 04:01:10;;;;;;;13.02;3.75;;;;;;;10.53;75.74;100938.16;5083791;28;20080;-69
2022/05/06 04:03:36;;;;;;;14.93;3.38;;;;;;;10.81;74.85;100947.69;5083892;28;20028;-70
2022/05/06 04:06:02;;;;;;;12.23;3.17;;;;;;;11.06;74.19;100932.94;5083709;28;20023;-69
2022/05/06 04:08:27;;;;;;;12.27;3.20;;;;;;;11.42;72.17;100945.00;5083645;28;20115;-69
2022/05/06 04:10:53;;;;;;;11.70;3.28;;;;;;;11.77;72.61;100946.59;5083787;28;20017;-69
2022/05/06 04:13:19;;;;;;;12.35;3.25;;;;;;;12.08;70.27;100941.25;5083417;28;20500;-69
2022/05/06 04:15:48;;;;;;;15.38;3.00;;;;;;;12.39;69.87;100934.97;5083387;28;20062;-66
2022/05/06 04:18:14;;;;;;;9.20;2.30;;;;;;;12.79;67.74;100938.09;5065352;28;20020;-66
2022/05/06 04:23:29;;;;;;;14.30;2.60;;;;;;;13.70;66.54;100943.25;5082956;28;20034;-65
2022/05/06 04:25:56;;;;;;;13.05;3.50;;;;;;;14.11;64.26;100941.81;5083615;28;20036;-66
2022/05/06 04:28:22;;;;;;;15.27;2.60;;;;;;;14.38;61.03;100946.63;5083137;28;20044;-68
2022/05/06 04:30:47;;;;;;;23.50;3.28;;;;;;;14.66;60.20;100945.34;5083383;28;20472;-73
2022/05/06 04:33:13;;;;;;;16.10;2.97;;;;;;;14.92;60.11;100949.28;5083317;28;20106;-66
2022/05/06 04:35:39;;;;;;;13.55;2.75;;;;;;;15.19;58.21;100947.03;5082954;28;20020;-70
2022/05/06 04:38:05;;;;;;;12.35;3.30;;;;;;;15.45;57.43;100951.75;5083215;28;20024;-72
2022/05/06 04:40:30;;;;;;;15.82;2.60;;;;;;;15.91;57.24;100958.69;5083183;28;20584;-69
2022/05/06 04:42:55;;;;;;;10.38;2.85;;;;;;;16.48;56.86;100946.88;5082935;28;20461;-65
2022/05/06 04:45:21;;;;;;;11.70;2.88;;;;;;;16.85;53.43;100958.22;5083290;28;20024;-66
2022/05/06 04:47:46;;;;;;;9.55;2.13;;;;;;;17.18;52.70;100951.28;5083090;28;20065;-69
2022/05/06 04:50:11;;;;;;;14.73;2.72;;;;;;;17.67;52.66;100950.78;5083180;28;20012;-68
2022/05/06 04:52:37;;;;;;;10.15;2.47;;;;;;;17.91;50.24;100954.44;5083018;28;20112;-68
2022/05/06 04:55:03;;;;;;;10.43;3.00;;;;;;;17.98;49.01;100957.75;5082918;28;20447;-67
2022/05/06 04:57:28;;;;;;;10.75;3.08;;;;;;;18.14;48.59;100968.69;5082503;28;20031;-67
2022/05/06 04:59:54;;;;;;;15.55;2.30;;;;;;;18.20;47.32;100959.72;5082788;28;20035;-68
2022/05/06 05:02:20;;;;;;;8.77;2.38;;;;;;;18.15;47.57;100954.63;5083102;28;20029;-68
2022/05/06 05:04:46;;;;;;;12.00;2.58;;;;;;;18.20;46.52;100960.59;5083199;28;20009;-69
2022/05/06 05:07:12;;;;;;;15.85;2.38;;;;;;;18.14;46.97;100958.16;5083108;28;20020;-68
2022/05/06 05:09:37;;;;;;;10.20;2.55;;;;;;;18.42;46.84;100956.41;5083111;28;20024;-67
2022/05/06 05:12:04;;;;;;;7.80;2.30;;;;;;;18.66;46.58;100969.63;5082968;28;20496;-68
2022/05/06 05:14:30;;;;;;;13.20;2.50;;;;;;;18.77;45.48;100958.78;5082809;28;20119;-68
2022/05/06 05:16:55;;;;;;;11.73;2.67;;;;;;;18.79;45.67;100965.69;5082783;28;20092;-67
2022/05/06 05:19:20;;;;;;;14.35;3.33;;;;;;;19.24;44.70;100965.06;5083012;28;20032;-65
2022/05/06 05:21:49;;;;;;;13.70;2.85;;;;;;;19.24;44.04;100973.84;5082983;28;20024;-70
2022/05/06 05:24:14;;;;;;;15.05;3.35;;;;;;;19.25;43.37;100974.72;5082722;28;20024;-68
2022/05/06 05:26:40;;;;;;;5.57;2.15;;;;;;;19.33;42.77;100975.28;5082547;28;20084;-68
2022/05/06 05:29:05;;;;;;;7.75;2.53;;;;;;;19.40;42.86;100968.88;5082591;28;20115;-69
2022/05/06 05:31:31;;;;;;;12.90;3.08;;;;;;;19.36;42.02;100976.94;5082841;28;20036;-67
2022/05/06 05:33:56;;;;;;;7.60;2.47;;;;;;;19.44;41.88;100978.38;5084267;28;20028;-66
2022/05/06 05:36:22;;;;;;;10.45;2.55;;;;;;;19.79;41.73;100998.19;5086284;28;20105;-67
2022/05/06 05:38:47;;;;;;;11.52;2.13;;;;;;;19.66;39.93;101001.31;5086654;28;20028;-68
2022/05/06 05:41:12;;;;;;;8.82;2.50;;;;;;;19.38;41.24;101012.81;5086488;28;20023;-67
2022/05/06 05:49:06;;;;;;;6.70;1.98;;;;;;;19.71;40.56;100998.50;5086616;28;20036;-67
2022/05/06 05:51:33;;;;;;;7.88;2.35;;;;;;;19.60;41.11;100996.22;5086461;28;20021;-67
2022/05/06 05:53:58;;;;;;;10.07;2.45;;;;;;;19.86;40.26;100998.81;5086451;28;20029;-68
2022/05/06 05:56:23;;;;;;;7.15;1.90;;;;;;;19.95;40.00;100995.84;5086420;28;20040;-66
2022/05/06 05:58:50;;;;;;;11.18;1.92;;;;;;;19.76;40.24;100993.03;5086020;28;20551;-67
2022/05/06 06:01:15;;;;;;;8.95;2.45;;;;;;;19.76;40.72;101004.41;5086240;28;20032;-67
2022/05/06 06:03:41;;;;;;;13.52;2.30;;;;;;;19.96;41.26;101004.59;5086190;28;20023;-68
2022/05/06 06:06:06;;;;;;;5.80;2.00;;;;;;;20.51;40.19;100998.91;5085890;28;20059;-67
2022/05/06 06:08:32;;;;;;;8.43;2.25;;;;;;;20.59;38.95;101008.31;5086130;28;20059;-66
2022/05/06 06:11:01;;;;;;;9.50;2.72;;;;;;;19.78;39.74;101007.88;5085727;28;20020;-67
2022/05/06 06:13:32;;;;;;;10.02;2.30;;;;;;;19.68;40.90;101009.16;5085396;28;20024;-67
2022/05/06 06:15:58;;;;;;;14.45;2.60;;;;;;;19.62;40.98;101014.59;5085653;28;20107;-66
2022/05/06 06:18:27;;;;;;;11.45;2.40;;;;;;;19.49;41.40;101008.97;5085251;28;20044;-67
2022/05/06 06:20:54;;;;;;;10.25;2.70;;;;;;;19.46;42.37;101002.00;5085445;28;20021;-67
2022/05/06 06:23:20;;;;;;;7.68;2.60;;;;;;;19.44;41.85;101012.59;5085384;28;20135;-67
2022/05/06 06:25:46;;;;;;;9.02;2.20;;;;;;;19.73;42.39;101017.72;5085253;28;20021;-67
2022/05/06 06:28:11;;;;;;;13.60;2.78;;;;;;;19.60;41.18;101019.09;5084661;28;20092;-66
2022/05/06 06:30:36;;;;;;;9.32;2.53;;;;;;;19.68;41.56;101019.69;5085091;28;20507;-67
2022/05/06 06:33:02;;;;;;;14.52;2.30;;;;;;;19.83;41.71;101012.97;5085214;28;20052;-67
2022/05/06 06:35:27;;;;;;;10.43;2.53;;;;;;;20.03;40.65;101020.13;5084896;28;20028;-66
2022/05/06 06:37:52;;;;;;;8.05;1.90;;;;;;;19.94;40.36;101020.44;5084871;28;20032;-67
2022/05/06 06:40:18;;;;;;;8.95;2.38;;;;;;;19.59;40.92;101020.84;5084907;28;20520;-67
2022/05/06 06:42:44;;;;;;;9.90;2.50;;;;;;;18.97;41.75;101018.59;5084809;28;20225;-66
2022/05/06 06:45:10;;;;;;;8.00;2.05;;;;;;;18.18;43.15;101024.59;5084179;28;20080;-66
2022/05/06 06:47:35;;;;;;;10.10;2.13;;;;;;;17.49;44.51;101025.69;5084995;28;20048;-68
2022/05/06 06:50:01;;;;;;;10.73;2.33;;;;;;;17.27;46.11;101026.28;5084738;28;20021;-67
2022/05/06 06:52:27;;;;;;;9.20;2.35;;;;;;;17.39;46.18;101028.56;5066792;28;20464;-67
2022/05/06 06:54:52;;;;;;;4.93;2.10;;;;;;;17.20;45.88;101029.03;5084907;28;20020;-68
2022/05/06 06:57:18;;;;;;;10.70;2.25;;;;;;;16.91;46.70;101030.63;5084847;28;20036;-68
2022/05/06 06:59:43;;;;;;;7.25;2.03;;;;;;;16.85;47.54;101036.88;5084850;28;20055;-67
2022/05/06 07:02:08;;;;;;;8.32;2.22;;;;;;;17.13;47.00;101030.13;5084856;28;20028;-66
2022/05/06 07:04:34;;;;;;;16.50;2.72;;;;;;;17.24;46.08;101032.44;5084914;28;20055;-68
2022/05/06 07:12:27;;;;;;;8.45;2.20;;;;;;;17.41;46.46;101037.25;5084983;28;20084;-67
2022/05/06 07:14:53;;;;;;;16.15;2.25;;;;;;;17.75;45.60;101038.06;5084034;28;20041;-67
2022/05/06 07:17:18;;;;;;;5.95;1.50;;;;;;;18.13;45.86;101043.13;5084440;28;20021;-67
2022/05/06 07:19:44;;;;;;;7.40;2.08;;;;;;;18.72;44.33;101050.13;5084676;28;20031;-67
2022/05/06 07:22:09;;;;;;;8.90;1.48;;;;;;;19.02;42.77;101042.13;5084097;28;20040;-69
2022/05/06 07:24:34;;;;;;;6.63;1.48;;;;;;;19.19;41.34;101036.31;5084189;28;20032;-67
2022/05/06 07:27:00;;;;;;;8.40;1.70;;;;;;;19.17;41.25;101048.69;5084076;28;20021;-67
2022/05/06 07:29:25;;;;;;;5.40;1.42;;;;;;;19.25;40.29;101054.50;5083866;28;20024;-67
2022/05/06 07:31:51;;;;;;;6.82;1.42;;;;;;;19.27;40.44;101057.97;5084135;28;20075;-67
2022/05/06 07:34:17;;;;;;;7.07;1.55;;;;;;;19.49;39.92;101046.66;5084032;28;20009;-67
2022/05/06 07:36:42;;;;;;;5.72;1.20;;;;;;;20.15;39.41;101058.34;5083606;28;20044;-67
2022/05/06 07:39:12;;;;;;;5.63;1.38;;;;;;;20.70;38.04;101055.34;5084012;28;20028;-67
2022/05/06 07:41:38;;;;;;;8.90;1.73;;;;;;;21.07;36.58;101056.47;5066208;28;20024;-67
2022/05/06 07:44:04;;;;;;;5.90;1.25;;;;;;;21.29;36.20;101053.78;5083781;28;20051;-67
2022/05/06 07:46:30;;;;;;;5.25;1.38;;;;;;;21.46;35.35;101052.19;5065684;28;20047;-67
2022/05/06 07:48:55;;;;;;;4.55;1.40;;;;;;;21.48;34.61;101057.41;5083611;28;20079;-67
2022/05/06 07:51:20;;;;;;;5.55;1.50;;;;;;;21.20;34.17;101048.88;5083660;28;20032;-66
2022/05/06 07:53:47;;;;;;;9.95;1.98;;;;;;;20.76;35.56;101049.81;5083489;28;20326;-66
2022/05/06 07:56:13;;;;;;;8.85;1.95;;;;;;;20.39;36.46;101063.56;5083225;28;20047;-66
2022/05/06 07:58:38;;;;;;;8.05;2.63;;;;;;;20.15;37.24;101060.13;5082551;28;20084;-66
2022/05/06 08:01:05;;;;;;;6.38;2.00;;;;;;;19.96;37.78;101065.19;5083462;28;20086;-66
2022/05/06 08:06:14;;;;;;;9.85;2.85;;;;;;;19.73;39.13;101073.03;5083441;28;20106;-65
2022/05/06 08:08:39;;;;;;;8.10;1.90;;;;;;;19.82;38.21;101079.75;5083297;28;20033;-66
2022/05/06 08:11:05;;;;;;;8.93;2.33;;;;;;;19.73;38.55;101080.94;5083247;28;20020;-66
2022/05/06 08:13:30;;;;;;;7.47;2.42;;;;;;;19.87;38.21;101083.06;5083298;28;20078;-69
2022/05/06 08:15:57;;;;;;;10.60;2.10;;;;;;;19.92;38.27;101082.91;5083288;28;20464;-67
2022/05/06 08:18:23;;;;;;;3.83;1.60;;;;;;;20.12;38.32;101086.59;5083232;28;20108;-67
2022/05/06 08:20:48;;;;;;;9.77;3.17;;;;;;;20.27;38.24;101079.88;5065004;28;20030;-67
2022/05/06 08:23:14;;;;;;;8.75;3.17;;;;;;;20.39;38.20;101083.81;5083315;28;20043;-67
2022/05/06 08:25:39;;;;;;;8.65;3.30;;;;;;;20.21;38.49;101080.13;5083290;28;20080;-67
2022/05/06 08:28:07;;;;;;;5.30;2.65;;;;;;;20.29;38.37;101075.38;5082675;28;20024;-67
2022/05/06 08:30:32;;;;;;;8.00;2.40;;;;;;;20.13;38.83;101085.66;5083537;28;20047;-67
2022/05/06 08:32:57;;;;;;;8.35;2.58;;;;;;;19.68;39.77;101080.25;5083060;28;20511;-68
2022/05/06 08:35:23;;;;;;;10.57;2.75;;;;;;;19.07;40.34;101085.78;5082823;28;20096;-67
2022/05/06 08:37:49;;;;;;;10.88;3.20;;;;;;;18.26;41.67;101085.69;5082639;28;20052;-67
2022/05/06 08:40:26;;;;;;;10.65;3.25;;;;;;;17.54;43.18;101078.94;5082871;28;20166;-66
2022/05/06 08:42:52;;;;;;;8.63;2.22;;;;;;;16.85;44.57;101088.47;5082611;28;20029;-66
2022/05/06 08:50:58;;;;;;;5.55;2.50;;;;;;;15.51;48.18;101081.59;5082990;28;20086;-68
2022/05/06 08:53:29;;;;;;;5.72;2.40;;;;;;;15.26;49.05;101081.16;5082698;28;20047;-66
2022/05/06 08:55:57;;;;;;;11.38;3.22;;;;;;;15.13;49.38;101089.22;5082869;28;20040;-68
2022/05/06 08:58:23;;;;;;;7.07;3.00;;;;;;;14.96;50.14;101093.00;5082318;28;20028;-67
2022/05/06 09:00:49;;;;;;;11.82;3.67;;;;;;;14.82;50.57;101080.16;5064711;28;20039;-67
2022/05/06 09:03:16;;;;;;;7.90;2.22;;;;;;;14.63;50.98;101080.38;5082755;28;20365;-67
2022/05/06 09:05:55;;;;;;;10.10;2.53;;;;;;;14.59;51.17;101089.16;5082679;28;20032;-67
2022/05/06 09:08:21;;;;;;;7.65;2.30;;;;;;;14.36;51.64;101086.84;5082427;28;20052;-67
2022/05/06 09:11:01;;;;;;;6.75;2.25;;;;;;;14.12;52.17;101087.13;5082686;28;20024;-67
2022/05/06 09:13:26;;;;;;;7.07;2.58;;;;;;;14.03;52.61;101070.72;5082158;28;20032;-67
2022/05/06 09:19:09;;;;;;;7.03;2.83;;;;;;;13.79;53.56;101086.66;5082436;28;20036;-67
2022/05/06 09:21:36;;;;;;;11.52;2.50;;;;;;;13.76;54.18;101091.91;5082426;28;20024;-67
2022/05/06 09:24:16;;;;;;;7.55;2.60;;;;;;;13.68;55.23;101101.56;5082416;28;20020;-67
2022/05/06 09:26:54;;;;;;;7.95;2.35;;;;;;;13.44;56.08;101093.06;5082752;28;20047;-66
2022/05/06 09:29:39;;;;;;;9.85;3.08;;;;;;;13.38;56.46;101094.88;5082494;28;20025;-66
2022/05/06 09:32:23;;;;;;;12.60;2.80;;;;;;;13.28;57.24;101106.25;5083191;28;20032;-67
2022/05/06 09:34:51;;;;;;;10.60;2.75;;;;;;;13.37;57.40;101103.53;5082350;28;20081;-68
2022/05/06 09:37:31;;;;;;;9.70;3.30;;;;;;;13.50;56.93;101093.00;5082349;28;20139;-68
2022/05/06 09:40:08;;;;;;;7.80;3.03;;;;;;;13.58;57.17;101099.03;5082506;28;20104;-69
2022/05/06 09:42:41;;;;;;;9.00;3.17;;;;;;;13.61;57.05;101099.00;5082483;28;20055;-68
2022/05/06 09:45:08;;;;;;;7.63;3.25;;;;;;;13.60;57.05;101102.50;5081993;28;20061;-67
2022/05/06 09:47:34;;;;;;;12.02;3.42;;;;;;;13.63;56.96;101099.88;5082186;28;20032;-68
2022/05/06 09:50:01;;;;;;;9.68;3.63;;;;;;;13.67;57.14;101095.50;5082244;28;20020;-68
2022/05/06 09:52:26;;;;;;;8.40;3.47;;;;;;;13.75;57.18;101098.00;5082315;28;20047;-67
2022/05/06 09:54:52;;;;;;;9.00;3.10;;;;;;;13.80;56.82;101101.41;5082265;28;20035;-68
2022/05/06 09:57:20;;;;;;;8.48;3.70;;;;;;;13.80;56.70;101097.97;5082175;28;20480;-67
2022/05/06 09:59:47;;;;;;;13.55;3.75;;;;;;;13.78;57.07;101100.59;5082066;28;20241;-68
2022/05/06 10:02:13;;;;;;;9.77;3.33;;;;;;;13.80;56.93;101097.97;5063954;28;20093;-67
2022/05/06 10:04:39;;;;;;;7.97;3.40;;;;;;;13.81;56.92;101100.56;5082171;28;20032;-67
2022/05/06 10:07:07;;;;;;;11.88;3.75;;;;;;;13.80;56.69;101101.41;5081992;28;20032;-67
2022/05/06 10:09:39;;;;;;;8.55;3.88;;;;;;;13.74;56.60;101107.56;5082101;28;20024;-68
2022/05/06 10:12:06;;;;;;;;;;;;;;;13.74;56.95;101104.09;5082521;28;20437;-67
2022/05/06 10:14:32;;;;;;;9.40;3.70;;;;;;;13.68;57.21;101102.44;5081575;28;20295;-67
2022/05/06 10:16:58;;;;;;;9.98;3.83;;;;;;;13.50;57.07;101093.91;5081877;28;20021;-67
2022/05/06 10:19:38;;;;;;;7.40;3.33;;;;;;;13.34;57.72;101106.19;5082092;28;20032;-67
2022/05/06 10:22:04;;;;;;;15.00;4.05;;;;;;;13.26;58.02;101103.63;5085097;28;20291;-68
2022/05/06 10:24:49;;;;;;;9.82;3.50;;;;;;;13.25;57.81;101095.84;5085521;28;20225;-67
2022/05/06 10:33:18;;;;;;;7.40;3.58;;;;;;;13.17;58.35;101102.84;5085561;28;20070;-67
2022/05/06 10:35:45;;;;;;;7.18;3.30;;;;;;;13.13;59.00;101100.25;5085069;28;20024;-68
2022/05/06 10:38:24;;;;;;;6.32;3.05;;;;;;;13.11;59.01;101104.66;5085132;28;20037;-68
2022/05/06 10:40:56;;;;;;;7.47;3.83;;;;;;;12.94;60.40;101102.16;5085186;28;20055;-66
2022/05/06 10:43:40;;;;;;;;;;;;;;;12.83;61.27;101107.44;5085410;28;20107;-66
2022/05/06 10:46:06;;;;;;;9.60;3.95;;;;;;;12.68;61.60;101107.53;5085110;28;19989;-68
2022/05/06 10:48:32;;;;;;;7.97;3.70;;;;;;;12.56;62.20;101085.00;5066737;28;20021;-67
2022/05/06 10:51:19;;;;;;;10.23;4.40;;;;;;;12.66;62.20;101106.66;5084628;28;20020;-67
2022/05/06 10:53:45;;;;;;;17.23;4.28;;;;;;;12.70;61.80;101104.03;5084990;28;20025;-67
2022/05/06 10:56:11;;;;;;;10.05;4.43;;;;;;;12.70;61.83;101101.44;5084781;28;20036;-67
2022/05/06 10:58:36;;;;;;;7.00;4.63;;;;;;;12.71;61.76;101102.31;5084521;28;20111;-67
2022/05/06 11:01:01;;;;;;;13.73;3.72;;;;;;;12.78;61.73;101103.97;5084726;28;20017;-67
2022/05/06 11:03:27;;;;;;;12.43;4.30;;;;;;;12.77;61.38;101099.66;5084635;28;20021;-68
2022/05/06 11:05:52;;;;;;;9.73;4.53;;;;;;;12.87;61.35;101109.16;5084442;28;20487;-66
2022/05/06 11:08:21;;;;;;;7.43;4.32;;;;;;;12.92;61.16;101106.53;5084420;28;20253;-68
2022/05/06 11:10:46;;;;;;;8.35;3.85;;;;;;;12.93;60.93;101108.25;5084512;28;20017;-67
2022/05/06 11:13:12;;;;;;;9.90;4.35;;;;;;;12.86;61.00;101102.19;5066142;28;20084;-68
2022/05/06 11:15:37;;;;;;;12.13;4.57;;;;;;;12.84;61.21;101098.72;5084412;28;20071;-67
2022/05/06 11:18:04;;;;;;;6.45;3.45;;;;;;;12.85;61.35;101092.66;5084509;28;20032;-66
2022/05/06 11:20:33;;;;;;;11.90;4.63;;;;;;;12.85;60.85;101086.56;5084279;28;20089;-67
2022/05/06 11:23:07;;;;;;;10.65;4.78;;;;;;;12.88;61.27;101094.38;5084375;28;20063;-67
2022/05/06 11:25:43;;;;;;;11.55;4.22;;;;;;;12.87;61.26;101095.25;5084094;28;20017;-67
2022/05/06 11:28:12;;;;;;;12.85;4.60;;;;;;;12.83;61.60;101102.22;5083802;28;20024;-66
2022/05/06 11:30:41;;;;;;;10.50;4.40;;;;;;;12.80;61.40;101104.84;5084028;28;20032;-67
2022/05/06 11:33:07;;;;;;;10.05;4.68;;;;;;;12.77;61.45;101112.69;5083542;28;20126;-66
2022/05/06 11:36:01;;;;;;;11.77;5.40;;;;;;;12.66;61.85;101111.88;5083449;28;20028;-67
2022/05/06 11:38:37;;;;;;;11.40;5.47;;;;;;;12.51;62.50;101103.28;5083824;28;20171;-67
2022/05/06 11:41:14;;;;;;;10.15;4.15;;;;;;;12.48;62.76;101098.09;5083644;28;20012;-66
2022/05/06 11:43:41;;;;;;;7.60;4.68;;;;;;;12.52;63.00;101100.66;5083716;28;20016;-67
2022/05/06 11:48:51;;;;;;;6.50;3.38;;;;;;;12.50;63.33;101094.63;5083857;28;20027;-66
2022/05/06 11:51:27;;;;;;;8.98;4.65;;;;;;;12.54;63.30;101099.81;5083850;28;20020;-67
2022/05/06 11:53:54;;;;;;;11.48;4.63;;;;;;;12.67;63.26;101098.00;5083920;28;20029;-67
2022/05/06 11:56:25;;;;;;;11.65;3.88;;;;;;;12.79;63.15;101100.53;5083569;28;20684;-68
2022/05/06 11:58:52;;;;;;;9.13;4.28;;;;;;;12.87;63.10;101088.31;5083259;28;20056;-68
2022/05/06 12:01:32;;;;;;;13.20;4.50;;;;;;;12.92;63.18;101090.88;5083727;28;20035;-67
2022/05/06 12:04:08;;;;;;;11.02;4.30;;;;;;;12.93;63.53;101091.72;5083550;28;20473;-68